<?xml version="1.0" encoding="UTF-8" standalone="no" ?>
<gpx xmlns="http://www.topografix.com/GPX/1/1" xmlns:xsi="http://www.w3.org/2001/XMLSchema-instance" xsi:schemaLocation="http://www.topografix.com/GPX/1/1 http://www.topografix.com/GPX/1/1/gpx.xsd" version="1.1" creator="VisuGPX - https://www.visugpx.com">
  <metadata>
    <name>Rialle_Autour_8-22km</name>
    <desc><![CDATA[gnerando idor:6722432_8173011_8173016_12476141_12476155_12511586_12530915_12533090_13050648]]></desc>
  </metadata>
  <wpt lat="47.55079" lon="-1.37723">
    <ele>56.1</ele>
    <name><![CDATA[0000725]]></name>
    <type><![CDATA[Point de départ]]></type>
  </wpt>
  <wpt lat="47.52565" lon="-1.40637">
    <ele>31.3</ele>
    <name><![CDATA[0000726]]></name>
    <desc><![CDATA[<p><br /><h3>Nom: Segment: 1</h3><br />Heure de départ: 05/30/2021 09:30<br/>Heure d'arrivée: 05/30/2021 12:31<br/>Distance: 15,3km (03:00)<br/>Temps déplacement: 02:45<br/>Vitesse moyenne: 5,07 km/h<br/>Vitesse moyenne mouv.: 5,52 km/h<br/>Vitesse Max.: 20,75 km/h<br/>Altitude minimale: 29 m<br/>Altitude maximale: 61 m<br/>Vitesse de montée: 135,3 m/h<br/>Vitesse de descente: -132,1 m/h<br/>Gain d'altitude: 143 m<br/>Perte d'altitude: -165 m<br/>Temps de montée: 01:03<br/>Temps de descente: 01:15<br/></p>]]></desc>
    <type><![CDATA[Point d'arrivée]]></type>
  </wpt>
  <wpt lat="47.52578" lon="-1.40648">
    <ele>31.5</ele>
    <name><![CDATA[0000727]]></name>
    <type><![CDATA[Point de départ]]></type>
  </wpt>
  <wpt lat="47.55083" lon="-1.37712">
    <ele>56.4</ele>
    <name><![CDATA[0000728]]></name>
    <desc><![CDATA[<p><br /><h3>Nom: Segment: 2</h3><br />Heure de départ: 05/30/2021 13:12<br/>Heure d'arrivée: 05/30/2021 14:32<br/>Distance: 6,7km (01:19)<br/>Temps déplacement: 01:16<br/>Vitesse moyenne: 5,05 km/h<br/>Vitesse moyenne mouv.: 5,23 km/h<br/>Vitesse Max.: 8,06 km/h<br/>Altitude minimale: 34 m<br/>Altitude maximale: 68 m<br/>Vitesse de montée: 179 m/h<br/>Vitesse de descente: -145,6 m/h<br/>Gain d'altitude: 102 m<br/>Perte d'altitude: -77 m<br/>Temps de montée: 00:34<br/>Temps de descente: 00:32<br/></p>]]></desc>
    <type><![CDATA[Point d'arrivée]]></type>
  </wpt>
  <trk>
    <name><![CDATA[Riaille_ValleErdre+Ajaux_16.2km-12533090]]></name>
    <extensions>
      <line xmlns="http://www.topografix.com/GPX/gpx_style/0/2">
        <color>FF0000</color>
        <width>4</width>
      </line>
    </extensions>
    <trkseg>
      <trkpt lat="47.51683" lon="-1.29198">
        <ele>35</ele>
        <time>2023-11-11T19:04:01Z</time>
      </trkpt>
      <trkpt lat="47.5167" lon="-1.29172">
        <ele>34</ele>
        <time>2023-11-11T19:04:30Z</time>
      </trkpt>
      <trkpt lat="47.51662" lon="-1.29148">
        <ele>34</ele>
        <time>2023-11-11T19:04:54Z</time>
      </trkpt>
      <trkpt lat="47.5164" lon="-1.29146">
        <ele>33</ele>
        <time>2023-11-11T19:05:24Z</time>
      </trkpt>
      <trkpt lat="47.51625" lon="-1.29125">
        <ele>32</ele>
        <time>2023-11-11T19:05:51Z</time>
      </trkpt>
      <trkpt lat="47.51582" lon="-1.29059">
        <ele>30</ele>
        <time>2023-11-11T19:07:14Z</time>
      </trkpt>
      <trkpt lat="47.51531" lon="-1.28963">
        <ele>28</ele>
        <time>2023-11-11T19:09:04Z</time>
      </trkpt>
      <trkpt lat="47.51514" lon="-1.28939">
        <ele>27</ele>
        <time>2023-11-11T19:09:35Z</time>
      </trkpt>
      <trkpt lat="47.51424" lon="-1.28835">
        <ele>25</ele>
        <time>2023-11-11T19:12:08Z</time>
      </trkpt>
      <trkpt lat="47.51412" lon="-1.28809">
        <ele>25</ele>
        <time>2023-11-11T19:12:36Z</time>
      </trkpt>
      <trkpt lat="47.51395" lon="-1.28798">
        <ele>24</ele>
        <time>2023-11-11T19:13:01Z</time>
      </trkpt>
      <trkpt lat="47.51378" lon="-1.28808">
        <ele>24</ele>
        <time>2023-11-11T19:13:25Z</time>
      </trkpt>
      <trkpt lat="47.51359" lon="-1.28813">
        <ele>24</ele>
        <time>2023-11-11T19:13:51Z</time>
      </trkpt>
      <trkpt lat="47.51336" lon="-1.28813">
        <ele>23</ele>
        <time>2023-11-11T19:14:22Z</time>
      </trkpt>
      <trkpt lat="47.51322" lon="-1.28836">
        <ele>23</ele>
        <time>2023-11-11T19:14:50Z</time>
      </trkpt>
      <trkpt lat="47.51315" lon="-1.28868">
        <ele>22</ele>
        <time>2023-11-11T19:15:20Z</time>
      </trkpt>
      <trkpt lat="47.51296" lon="-1.28925">
        <ele>22</ele>
        <time>2023-11-11T19:16:17Z</time>
      </trkpt>
      <trkpt lat="47.51314" lon="-1.28935">
        <ele>22</ele>
        <time>2023-11-11T19:16:43Z</time>
      </trkpt>
      <trkpt lat="47.51343" lon="-1.28978">
        <ele>24</ele>
        <time>2023-11-11T19:17:38Z</time>
      </trkpt>
      <trkpt lat="47.51326" lon="-1.28987">
        <ele>24</ele>
        <time>2023-11-11T19:18:02Z</time>
      </trkpt>
      <trkpt lat="47.51304" lon="-1.28991">
        <ele>23</ele>
        <time>2023-11-11T19:18:31Z</time>
      </trkpt>
      <trkpt lat="47.51285" lon="-1.28985">
        <ele>23</ele>
        <time>2023-11-11T19:18:57Z</time>
      </trkpt>
      <trkpt lat="47.51267" lon="-1.28972">
        <ele>23</ele>
        <time>2023-11-11T19:19:24Z</time>
      </trkpt>
      <trkpt lat="47.51209" lon="-1.28966">
        <ele>23</ele>
        <time>2023-11-11T19:20:42Z</time>
      </trkpt>
      <trkpt lat="47.51191" lon="-1.28956">
        <ele>23</ele>
        <time>2023-11-11T19:21:07Z</time>
      </trkpt>
      <trkpt lat="47.51157" lon="-1.28925">
        <ele>23</ele>
        <time>2023-11-11T19:22:00Z</time>
      </trkpt>
      <trkpt lat="47.5114" lon="-1.2892">
        <ele>23</ele>
        <time>2023-11-11T19:22:24Z</time>
      </trkpt>
      <trkpt lat="47.51134" lon="-1.28979">
        <ele>24</ele>
        <time>2023-11-11T19:23:17Z</time>
      </trkpt>
      <trkpt lat="47.51114" lon="-1.28984">
        <ele>25</ele>
        <time>2023-11-11T19:23:44Z</time>
      </trkpt>
      <trkpt lat="47.51101" lon="-1.28965">
        <ele>25</ele>
        <time>2023-11-11T19:24:09Z</time>
      </trkpt>
      <trkpt lat="47.5109" lon="-1.28941">
        <ele>25</ele>
        <time>2023-11-11T19:24:35Z</time>
      </trkpt>
      <trkpt lat="47.51071" lon="-1.28957">
        <ele>26</ele>
        <time>2023-11-11T19:25:04Z</time>
      </trkpt>
      <trkpt lat="47.51023" lon="-1.29016">
        <ele>28</ele>
        <time>2023-11-11T19:26:27Z</time>
      </trkpt>
      <trkpt lat="47.50988" lon="-1.29044">
        <ele>31</ele>
        <time>2023-11-11T19:27:20Z</time>
      </trkpt>
      <trkpt lat="47.50969" lon="-1.29056">
        <ele>32</ele>
        <time>2023-11-11T19:27:48Z</time>
      </trkpt>
      <trkpt lat="47.5095" lon="-1.29074">
        <ele>33</ele>
        <time>2023-11-11T19:28:18Z</time>
      </trkpt>
      <trkpt lat="47.50916" lon="-1.29109">
        <ele>34</ele>
        <time>2023-11-11T19:29:13Z</time>
      </trkpt>
      <trkpt lat="47.50885" lon="-1.29147">
        <ele>36</ele>
        <time>2023-11-11T19:30:07Z</time>
      </trkpt>
      <trkpt lat="47.50869" lon="-1.29161">
        <ele>37</ele>
        <time>2023-11-11T19:30:32Z</time>
      </trkpt>
      <trkpt lat="47.5079" lon="-1.29248">
        <ele>47</ele>
        <time>2023-11-11T19:32:43Z</time>
      </trkpt>
      <trkpt lat="47.50772" lon="-1.29262">
        <ele>49</ele>
        <time>2023-11-11T19:33:10Z</time>
      </trkpt>
      <trkpt lat="47.50757" lon="-1.29278">
        <ele>51</ele>
        <time>2023-11-11T19:33:35Z</time>
      </trkpt>
      <trkpt lat="47.50715" lon="-1.29283">
        <ele>54</ele>
        <time>2023-11-11T19:34:31Z</time>
      </trkpt>
      <trkpt lat="47.50634" lon="-1.29298">
        <ele>60</ele>
        <time>2023-11-11T19:36:20Z</time>
      </trkpt>
      <trkpt lat="47.5057" lon="-1.29303">
        <ele>65</ele>
        <time>2023-11-11T19:37:46Z</time>
      </trkpt>
      <trkpt lat="47.50549" lon="-1.29311">
        <ele>66</ele>
        <time>2023-11-11T19:38:15Z</time>
      </trkpt>
      <trkpt lat="47.50527" lon="-1.29323">
        <ele>67</ele>
        <time>2023-11-11T19:38:46Z</time>
      </trkpt>
      <trkpt lat="47.50505" lon="-1.2933">
        <ele>68</ele>
        <time>2023-11-11T19:39:16Z</time>
      </trkpt>
      <trkpt lat="47.50484" lon="-1.29342">
        <ele>68</ele>
        <time>2023-11-11T19:39:46Z</time>
      </trkpt>
      <trkpt lat="47.50481" lon="-1.29369">
        <ele>68</ele>
        <time>2023-11-11T19:40:11Z</time>
      </trkpt>
      <trkpt lat="47.50483" lon="-1.2943">
        <ele>68</ele>
        <time>2023-11-11T19:41:06Z</time>
      </trkpt>
      <trkpt lat="47.50485" lon="-1.29456">
        <ele>68</ele>
        <time>2023-11-11T19:41:29Z</time>
      </trkpt>
      <trkpt lat="47.50492" lon="-1.29482">
        <ele>68</ele>
        <time>2023-11-11T19:41:55Z</time>
      </trkpt>
      <trkpt lat="47.50542" lon="-1.29531">
        <ele>67</ele>
        <time>2023-11-11T19:43:15Z</time>
      </trkpt>
      <trkpt lat="47.50558" lon="-1.29554">
        <ele>67</ele>
        <time>2023-11-11T19:43:44Z</time>
      </trkpt>
      <trkpt lat="47.50602" lon="-1.29632">
        <ele>63</ele>
        <time>2023-11-11T19:45:16Z</time>
      </trkpt>
      <trkpt lat="47.50664" lon="-1.29724">
        <ele>56</ele>
        <time>2023-11-11T19:47:13Z</time>
      </trkpt>
      <trkpt lat="47.50679" lon="-1.29751">
        <ele>53</ele>
        <time>2023-11-11T19:47:45Z</time>
      </trkpt>
      <trkpt lat="47.50685" lon="-1.2978">
        <ele>52</ele>
        <time>2023-11-11T19:48:12Z</time>
      </trkpt>
      <trkpt lat="47.50698" lon="-1.29875">
        <ele>47</ele>
        <time>2023-11-11T19:49:39Z</time>
      </trkpt>
      <trkpt lat="47.50708" lon="-1.29903">
        <ele>45</ele>
        <time>2023-11-11T19:50:08Z</time>
      </trkpt>
      <trkpt lat="47.50739" lon="-1.29952">
        <ele>41</ele>
        <time>2023-11-11T19:51:08Z</time>
      </trkpt>
      <trkpt lat="47.50752" lon="-1.2998">
        <ele>39</ele>
        <time>2023-11-11T19:51:39Z</time>
      </trkpt>
      <trkpt lat="47.50756" lon="-1.30013">
        <ele>38</ele>
        <time>2023-11-11T19:52:09Z</time>
      </trkpt>
      <trkpt lat="47.50756" lon="-1.30044">
        <ele>37</ele>
        <time>2023-11-11T19:52:37Z</time>
      </trkpt>
      <trkpt lat="47.50749" lon="-1.30069">
        <ele>37</ele>
        <time>2023-11-11T19:53:02Z</time>
      </trkpt>
      <trkpt lat="47.50733" lon="-1.30092">
        <ele>37</ele>
        <time>2023-11-11T19:53:31Z</time>
      </trkpt>
      <trkpt lat="47.50685" lon="-1.30147">
        <ele>42</ele>
        <time>2023-11-11T19:54:52Z</time>
      </trkpt>
      <trkpt lat="47.50672" lon="-1.30169">
        <ele>43</ele>
        <time>2023-11-11T19:55:19Z</time>
      </trkpt>
      <trkpt lat="47.50663" lon="-1.30195">
        <ele>44</ele>
        <time>2023-11-11T19:55:45Z</time>
      </trkpt>
      <trkpt lat="47.50631" lon="-1.30269">
        <ele>46</ele>
        <time>2023-11-11T19:57:04Z</time>
      </trkpt>
      <trkpt lat="47.50595" lon="-1.30345">
        <ele>47</ele>
        <time>2023-11-11T19:58:28Z</time>
      </trkpt>
      <trkpt lat="47.50582" lon="-1.30368">
        <ele>48</ele>
        <time>2023-11-11T19:58:55Z</time>
      </trkpt>
      <trkpt lat="47.50551" lon="-1.3041">
        <ele>51</ele>
        <time>2023-11-11T19:59:51Z</time>
      </trkpt>
      <trkpt lat="47.50461" lon="-1.30468">
        <ele>50</ele>
        <time>2023-11-11T20:02:02Z</time>
      </trkpt>
      <trkpt lat="47.50405" lon="-1.30496">
        <ele>45</ele>
        <time>2023-11-11T20:03:21Z</time>
      </trkpt>
      <trkpt lat="47.50366" lon="-1.30506">
        <ele>42</ele>
        <time>2023-11-11T20:04:14Z</time>
      </trkpt>
      <trkpt lat="47.50348" lon="-1.3052">
        <ele>40</ele>
        <time>2023-11-11T20:04:41Z</time>
      </trkpt>
      <trkpt lat="47.50327" lon="-1.3057">
        <ele>37</ele>
        <time>2023-11-11T20:05:34Z</time>
      </trkpt>
      <trkpt lat="47.50267" lon="-1.30651">
        <ele>35</ele>
        <time>2023-11-11T20:07:22Z</time>
      </trkpt>
      <trkpt lat="47.50242" lon="-1.30698">
        <ele>33</ele>
        <time>2023-11-11T20:08:16Z</time>
      </trkpt>
      <trkpt lat="47.50223" lon="-1.30713">
        <ele>33</ele>
        <time>2023-11-11T20:08:45Z</time>
      </trkpt>
      <trkpt lat="47.50204" lon="-1.30717">
        <ele>32</ele>
        <time>2023-11-11T20:09:11Z</time>
      </trkpt>
      <trkpt lat="47.50187" lon="-1.30727">
        <ele>32</ele>
        <time>2023-11-11T20:09:35Z</time>
      </trkpt>
      <trkpt lat="47.50192" lon="-1.30753">
        <ele>31</ele>
        <time>2023-11-11T20:09:59Z</time>
      </trkpt>
      <trkpt lat="47.50204" lon="-1.30778">
        <ele>31</ele>
        <time>2023-11-11T20:10:27Z</time>
      </trkpt>
      <trkpt lat="47.50212" lon="-1.30805">
        <ele>31</ele>
        <time>2023-11-11T20:10:54Z</time>
      </trkpt>
      <trkpt lat="47.50199" lon="-1.3087">
        <ele>33</ele>
        <time>2023-11-11T20:11:55Z</time>
      </trkpt>
      <trkpt lat="47.50187" lon="-1.30964">
        <ele>35</ele>
        <time>2023-11-11T20:13:21Z</time>
      </trkpt>
      <trkpt lat="47.50171" lon="-1.31055">
        <ele>36</ele>
        <time>2023-11-11T20:14:46Z</time>
      </trkpt>
      <trkpt lat="47.50184" lon="-1.31078">
        <ele>37</ele>
        <time>2023-11-11T20:15:13Z</time>
      </trkpt>
      <trkpt lat="47.50224" lon="-1.31095">
        <ele>38</ele>
        <time>2023-11-11T20:16:08Z</time>
      </trkpt>
      <trkpt lat="47.50224" lon="-1.31125">
        <ele>39</ele>
        <time>2023-11-11T20:16:35Z</time>
      </trkpt>
      <trkpt lat="47.50211" lon="-1.31182">
        <ele>41</ele>
        <time>2023-11-11T20:17:30Z</time>
      </trkpt>
      <trkpt lat="47.50173" lon="-1.31314">
        <ele>40</ele>
        <time>2023-11-11T20:19:39Z</time>
      </trkpt>
      <trkpt lat="47.50167" lon="-1.31369">
        <ele>38</ele>
        <time>2023-11-11T20:20:29Z</time>
      </trkpt>
      <trkpt lat="47.50169" lon="-1.31402">
        <ele>37</ele>
        <time>2023-11-11T20:20:59Z</time>
      </trkpt>
      <trkpt lat="47.50163" lon="-1.31516">
        <ele>35</ele>
        <time>2023-11-11T20:22:42Z</time>
      </trkpt>
      <trkpt lat="47.50184" lon="-1.31521">
        <ele>34</ele>
        <time>2023-11-11T20:23:11Z</time>
      </trkpt>
      <trkpt lat="47.50224" lon="-1.31503">
        <ele>31</ele>
        <time>2023-11-11T20:24:06Z</time>
      </trkpt>
      <trkpt lat="47.50245" lon="-1.31499">
        <ele>30</ele>
        <time>2023-11-11T20:24:35Z</time>
      </trkpt>
      <trkpt lat="47.50256" lon="-1.31526">
        <ele>30</ele>
        <time>2023-11-11T20:25:03Z</time>
      </trkpt>
      <trkpt lat="47.50244" lon="-1.31608">
        <ele>31</ele>
        <time>2023-11-11T20:26:19Z</time>
      </trkpt>
      <trkpt lat="47.50253" lon="-1.31636">
        <ele>30</ele>
        <time>2023-11-11T20:26:47Z</time>
      </trkpt>
      <trkpt lat="47.50251" lon="-1.31665">
        <ele>30</ele>
        <time>2023-11-11T20:27:13Z</time>
      </trkpt>
      <trkpt lat="47.50247" lon="-1.31697">
        <ele>30</ele>
        <time>2023-11-11T20:27:42Z</time>
      </trkpt>
      <trkpt lat="47.50233" lon="-1.31755">
        <ele>31</ele>
        <time>2023-11-11T20:28:38Z</time>
      </trkpt>
      <trkpt lat="47.50222" lon="-1.31846">
        <ele>29</ele>
        <time>2023-11-11T20:30:01Z</time>
      </trkpt>
      <trkpt lat="47.50205" lon="-1.31901">
        <ele>30</ele>
        <time>2023-11-11T20:30:56Z</time>
      </trkpt>
      <trkpt lat="47.50206" lon="-1.31934">
        <ele>29</ele>
        <time>2023-11-11T20:31:25Z</time>
      </trkpt>
      <trkpt lat="47.50201" lon="-1.31904">
        <ele>30</ele>
        <time>2023-11-11T20:31:53Z</time>
      </trkpt>
      <trkpt lat="47.50218" lon="-1.31847">
        <ele>30</ele>
        <time>2023-11-11T20:32:49Z</time>
      </trkpt>
      <trkpt lat="47.50228" lon="-1.31757">
        <ele>32</ele>
        <time>2023-11-11T20:34:12Z</time>
      </trkpt>
      <trkpt lat="47.50237" lon="-1.31728">
        <ele>31</ele>
        <time>2023-11-11T20:34:40Z</time>
      </trkpt>
      <trkpt lat="47.50247" lon="-1.31672">
        <ele>30</ele>
        <time>2023-11-11T20:35:33Z</time>
      </trkpt>
      <trkpt lat="47.50256" lon="-1.31644">
        <ele>30</ele>
        <time>2023-11-11T20:36:01Z</time>
      </trkpt>
      <trkpt lat="47.50242" lon="-1.31623">
        <ele>31</ele>
        <time>2023-11-11T20:36:27Z</time>
      </trkpt>
      <trkpt lat="47.50241" lon="-1.31594">
        <ele>31</ele>
        <time>2023-11-11T20:36:53Z</time>
      </trkpt>
      <trkpt lat="47.5025" lon="-1.31565">
        <ele>31</ele>
        <time>2023-11-11T20:37:22Z</time>
      </trkpt>
      <trkpt lat="47.50255" lon="-1.31537">
        <ele>30</ele>
        <time>2023-11-11T20:37:48Z</time>
      </trkpt>
      <trkpt lat="47.50257" lon="-1.31507">
        <ele>30</ele>
        <time>2023-11-11T20:38:15Z</time>
      </trkpt>
      <trkpt lat="47.50237" lon="-1.31498">
        <ele>31</ele>
        <time>2023-11-11T20:38:43Z</time>
      </trkpt>
      <trkpt lat="47.50217" lon="-1.31502">
        <ele>32</ele>
        <time>2023-11-11T20:39:10Z</time>
      </trkpt>
      <trkpt lat="47.50197" lon="-1.31512">
        <ele>33</ele>
        <time>2023-11-11T20:39:38Z</time>
      </trkpt>
      <trkpt lat="47.50178" lon="-1.31517">
        <ele>34</ele>
        <time>2023-11-11T20:40:04Z</time>
      </trkpt>
      <trkpt lat="47.50162" lon="-1.31505">
        <ele>35</ele>
        <time>2023-11-11T20:40:28Z</time>
      </trkpt>
      <trkpt lat="47.50164" lon="-1.31446">
        <ele>36</ele>
        <time>2023-11-11T20:41:21Z</time>
      </trkpt>
      <trkpt lat="47.50169" lon="-1.31412">
        <ele>36</ele>
        <time>2023-11-11T20:41:53Z</time>
      </trkpt>
      <trkpt lat="47.50172" lon="-1.31326">
        <ele>40</ele>
        <time>2023-11-11T20:43:10Z</time>
      </trkpt>
      <trkpt lat="47.50177" lon="-1.31297">
        <ele>40</ele>
        <time>2023-11-11T20:43:37Z</time>
      </trkpt>
      <trkpt lat="47.50209" lon="-1.31193">
        <ele>41</ele>
        <time>2023-11-11T20:45:20Z</time>
      </trkpt>
      <trkpt lat="47.5023" lon="-1.31109">
        <ele>39</ele>
        <time>2023-11-11T20:46:41Z</time>
      </trkpt>
      <trkpt lat="47.50216" lon="-1.31091">
        <ele>38</ele>
        <time>2023-11-11T20:47:06Z</time>
      </trkpt>
      <trkpt lat="47.50181" lon="-1.31077">
        <ele>36</ele>
        <time>2023-11-11T20:47:54Z</time>
      </trkpt>
      <trkpt lat="47.50172" lon="-1.31049">
        <ele>36</ele>
        <time>2023-11-11T20:48:22Z</time>
      </trkpt>
      <trkpt lat="47.50202" lon="-1.30884">
        <ele>33</ele>
        <time>2023-11-11T20:50:56Z</time>
      </trkpt>
      <trkpt lat="47.50212" lon="-1.308">
        <ele>31</ele>
        <time>2023-11-11T20:52:13Z</time>
      </trkpt>
      <trkpt lat="47.50224" lon="-1.3078">
        <ele>31</ele>
        <time>2023-11-11T20:52:37Z</time>
      </trkpt>
      <trkpt lat="47.50289" lon="-1.30784">
        <ele>29</ele>
        <time>2023-11-11T20:54:04Z</time>
      </trkpt>
      <trkpt lat="47.5031" lon="-1.3079">
        <ele>29</ele>
        <time>2023-11-11T20:54:33Z</time>
      </trkpt>
      <trkpt lat="47.50329" lon="-1.30799">
        <ele>28</ele>
        <time>2023-11-11T20:54:59Z</time>
      </trkpt>
      <trkpt lat="47.50348" lon="-1.30813">
        <ele>28</ele>
        <time>2023-11-11T20:55:28Z</time>
      </trkpt>
      <trkpt lat="47.50478" lon="-1.30929">
        <ele>27</ele>
        <time>2023-11-11T20:58:50Z</time>
      </trkpt>
      <trkpt lat="47.50518" lon="-1.30957">
        <ele>27</ele>
        <time>2023-11-11T20:59:49Z</time>
      </trkpt>
      <trkpt lat="47.50538" lon="-1.30966">
        <ele>27</ele>
        <time>2023-11-11T21:00:17Z</time>
      </trkpt>
      <trkpt lat="47.50558" lon="-1.30971">
        <ele>27</ele>
        <time>2023-11-11T21:00:44Z</time>
      </trkpt>
      <trkpt lat="47.50644" lon="-1.30983">
        <ele>23</ele>
        <time>2023-11-11T21:02:39Z</time>
      </trkpt>
      <trkpt lat="47.50666" lon="-1.30989">
        <ele>22</ele>
        <time>2023-11-11T21:03:09Z</time>
      </trkpt>
      <trkpt lat="47.50732" lon="-1.30999">
        <ele>27</ele>
        <time>2023-11-11T21:04:38Z</time>
      </trkpt>
      <trkpt lat="47.50742" lon="-1.31023">
        <ele>29</ele>
        <time>2023-11-11T21:05:03Z</time>
      </trkpt>
      <trkpt lat="47.50734" lon="-1.31085">
        <ele>32</ele>
        <time>2023-11-11T21:06:00Z</time>
      </trkpt>
      <trkpt lat="47.50704" lon="-1.31195">
        <ele>29</ele>
        <time>2023-11-11T21:07:47Z</time>
      </trkpt>
      <trkpt lat="47.50693" lon="-1.3122">
        <ele>28</ele>
        <time>2023-11-11T21:08:14Z</time>
      </trkpt>
      <trkpt lat="47.50685" lon="-1.31247">
        <ele>28</ele>
        <time>2023-11-11T21:08:40Z</time>
      </trkpt>
      <trkpt lat="47.50682" lon="-1.31275">
        <ele>30</ele>
        <time>2023-11-11T21:09:06Z</time>
      </trkpt>
      <trkpt lat="47.50668" lon="-1.31296">
        <ele>29</ele>
        <time>2023-11-11T21:09:33Z</time>
      </trkpt>
      <trkpt lat="47.50653" lon="-1.31349">
        <ele>32</ele>
        <time>2023-11-11T21:10:24Z</time>
      </trkpt>
      <trkpt lat="47.50652" lon="-1.31377">
        <ele>36</ele>
        <time>2023-11-11T21:10:50Z</time>
      </trkpt>
      <trkpt lat="47.50665" lon="-1.31396">
        <ele>40</ele>
        <time>2023-11-11T21:11:14Z</time>
      </trkpt>
      <trkpt lat="47.50684" lon="-1.31401">
        <ele>42</ele>
        <time>2023-11-11T21:11:40Z</time>
      </trkpt>
      <trkpt lat="47.50687" lon="-1.31371">
        <ele>39</ele>
        <time>2023-11-11T21:12:07Z</time>
      </trkpt>
      <trkpt lat="47.50708" lon="-1.31321">
        <ele>38</ele>
        <time>2023-11-11T21:13:00Z</time>
      </trkpt>
      <trkpt lat="47.50725" lon="-1.313">
        <ele>40</ele>
        <time>2023-11-11T21:13:30Z</time>
      </trkpt>
      <trkpt lat="47.50751" lon="-1.3125">
        <ele>42</ele>
        <time>2023-11-11T21:14:27Z</time>
      </trkpt>
      <trkpt lat="47.50783" lon="-1.31175">
        <ele>43</ele>
        <time>2023-11-11T21:15:47Z</time>
      </trkpt>
      <trkpt lat="47.50798" lon="-1.31159">
        <ele>45</ele>
        <time>2023-11-11T21:16:11Z</time>
      </trkpt>
      <trkpt lat="47.50816" lon="-1.31156">
        <ele>49</ele>
        <time>2023-11-11T21:16:35Z</time>
      </trkpt>
      <trkpt lat="47.50833" lon="-1.31101">
        <ele>52</ele>
        <time>2023-11-11T21:17:30Z</time>
      </trkpt>
      <trkpt lat="47.5085" lon="-1.31085">
        <ele>51</ele>
        <time>2023-11-11T21:17:57Z</time>
      </trkpt>
      <trkpt lat="47.50866" lon="-1.3103">
        <ele>44</ele>
        <time>2023-11-11T21:18:51Z</time>
      </trkpt>
      <trkpt lat="47.50871" lon="-1.30998">
        <ele>41</ele>
        <time>2023-11-11T21:19:20Z</time>
      </trkpt>
      <trkpt lat="47.50905" lon="-1.30895">
        <ele>35</ele>
        <time>2023-11-11T21:21:04Z</time>
      </trkpt>
      <trkpt lat="47.50925" lon="-1.30886">
        <ele>35</ele>
        <time>2023-11-11T21:21:32Z</time>
      </trkpt>
      <trkpt lat="47.50945" lon="-1.30898">
        <ele>36</ele>
        <time>2023-11-11T21:22:01Z</time>
      </trkpt>
      <trkpt lat="47.50958" lon="-1.30877">
        <ele>35</ele>
        <time>2023-11-11T21:22:26Z</time>
      </trkpt>
      <trkpt lat="47.50967" lon="-1.30854">
        <ele>34</ele>
        <time>2023-11-11T21:22:50Z</time>
      </trkpt>
      <trkpt lat="47.50983" lon="-1.30765">
        <ele>31</ele>
        <time>2023-11-11T21:24:13Z</time>
      </trkpt>
      <trkpt lat="47.5101" lon="-1.30656">
        <ele>29</ele>
        <time>2023-11-11T21:25:58Z</time>
      </trkpt>
      <trkpt lat="47.51024" lon="-1.30634">
        <ele>30</ele>
        <time>2023-11-11T21:26:25Z</time>
      </trkpt>
      <trkpt lat="47.51061" lon="-1.30605">
        <ele>31</ele>
        <time>2023-11-11T21:27:21Z</time>
      </trkpt>
      <trkpt lat="47.51098" lon="-1.3058">
        <ele>32</ele>
        <time>2023-11-11T21:28:15Z</time>
      </trkpt>
      <trkpt lat="47.51115" lon="-1.30572">
        <ele>32</ele>
        <time>2023-11-11T21:28:39Z</time>
      </trkpt>
      <trkpt lat="47.51133" lon="-1.30558">
        <ele>32</ele>
        <time>2023-11-11T21:29:06Z</time>
      </trkpt>
      <trkpt lat="47.5117" lon="-1.30539">
        <ele>33</ele>
        <time>2023-11-11T21:29:58Z</time>
      </trkpt>
      <trkpt lat="47.51204" lon="-1.30509">
        <ele>34</ele>
        <time>2023-11-11T21:30:51Z</time>
      </trkpt>
      <trkpt lat="47.51219" lon="-1.30485">
        <ele>34</ele>
        <time>2023-11-11T21:31:21Z</time>
      </trkpt>
      <trkpt lat="47.51238" lon="-1.30436">
        <ele>35</ele>
        <time>2023-11-11T21:32:12Z</time>
      </trkpt>
      <trkpt lat="47.5125" lon="-1.30416">
        <ele>36</ele>
        <time>2023-11-11T21:32:36Z</time>
      </trkpt>
      <trkpt lat="47.51265" lon="-1.304">
        <ele>35</ele>
        <time>2023-11-11T21:33:00Z</time>
      </trkpt>
      <trkpt lat="47.51263" lon="-1.3034">
        <ele>35</ele>
        <time>2023-11-11T21:33:55Z</time>
      </trkpt>
      <trkpt lat="47.51291" lon="-1.30164">
        <ele>33</ele>
        <time>2023-11-11T21:36:38Z</time>
      </trkpt>
      <trkpt lat="47.51297" lon="-1.301">
        <ele>33</ele>
        <time>2023-11-11T21:37:36Z</time>
      </trkpt>
      <trkpt lat="47.51296" lon="-1.3007">
        <ele>32</ele>
        <time>2023-11-11T21:38:03Z</time>
      </trkpt>
      <trkpt lat="47.51289" lon="-1.30008">
        <ele>31</ele>
        <time>2023-11-11T21:38:59Z</time>
      </trkpt>
      <trkpt lat="47.51288" lon="-1.2992">
        <ele>28</ele>
        <time>2023-11-11T21:40:19Z</time>
      </trkpt>
      <trkpt lat="47.51301" lon="-1.29862">
        <ele>27</ele>
        <time>2023-11-11T21:41:14Z</time>
      </trkpt>
      <trkpt lat="47.5132" lon="-1.29813">
        <ele>26</ele>
        <time>2023-11-11T21:42:05Z</time>
      </trkpt>
      <trkpt lat="47.51325" lon="-1.29782">
        <ele>25</ele>
        <time>2023-11-11T21:42:34Z</time>
      </trkpt>
      <trkpt lat="47.51336" lon="-1.2976">
        <ele>24</ele>
        <time>2023-11-11T21:42:58Z</time>
      </trkpt>
      <trkpt lat="47.5137" lon="-1.29716">
        <ele>23</ele>
        <time>2023-11-11T21:43:58Z</time>
      </trkpt>
      <trkpt lat="47.51383" lon="-1.29691">
        <ele>23</ele>
        <time>2023-11-11T21:44:27Z</time>
      </trkpt>
      <trkpt lat="47.51393" lon="-1.2966">
        <ele>23</ele>
        <time>2023-11-11T21:44:58Z</time>
      </trkpt>
      <trkpt lat="47.51408" lon="-1.29595">
        <ele>24</ele>
        <time>2023-11-11T21:46:00Z</time>
      </trkpt>
      <trkpt lat="47.5143" lon="-1.29534">
        <ele>25</ele>
        <time>2023-11-11T21:47:02Z</time>
      </trkpt>
      <trkpt lat="47.51447" lon="-1.29445">
        <ele>24</ele>
        <time>2023-11-11T21:48:25Z</time>
      </trkpt>
      <trkpt lat="47.51502" lon="-1.29389">
        <ele>24</ele>
        <time>2023-11-11T21:49:55Z</time>
      </trkpt>
      <trkpt lat="47.51519" lon="-1.29375">
        <ele>26</ele>
        <time>2023-11-11T21:50:21Z</time>
      </trkpt>
      <trkpt lat="47.51562" lon="-1.29355">
        <ele>29</ele>
        <time>2023-11-11T21:51:21Z</time>
      </trkpt>
      <trkpt lat="47.5162" lon="-1.29337">
        <ele>31</ele>
        <time>2023-11-11T21:52:40Z</time>
      </trkpt>
      <trkpt lat="47.51641" lon="-1.29335">
        <ele>32</ele>
        <time>2023-11-11T21:53:08Z</time>
      </trkpt>
      <trkpt lat="47.51682" lon="-1.29341">
        <ele>33</ele>
        <time>2023-11-11T21:54:03Z</time>
      </trkpt>
      <trkpt lat="47.51701" lon="-1.29334">
        <ele>34</ele>
        <time>2023-11-11T21:54:29Z</time>
      </trkpt>
      <trkpt lat="47.5172" lon="-1.29343">
        <ele>35</ele>
        <time>2023-11-11T21:54:56Z</time>
      </trkpt>
      <trkpt lat="47.51737" lon="-1.29358">
        <ele>36</ele>
        <time>2023-11-11T21:55:22Z</time>
      </trkpt>
      <trkpt lat="47.51759" lon="-1.29363">
        <ele>38</ele>
        <time>2023-11-11T21:55:52Z</time>
      </trkpt>
      <trkpt lat="47.51759" lon="-1.29335">
        <ele>37</ele>
        <time>2023-11-11T21:56:17Z</time>
      </trkpt>
      <trkpt lat="47.51752" lon="-1.29303">
        <ele>37</ele>
        <time>2023-11-11T21:56:47Z</time>
      </trkpt>
      <trkpt lat="47.51757" lon="-1.29273">
        <ele>38</ele>
        <time>2023-11-11T21:57:15Z</time>
      </trkpt>
      <trkpt lat="47.51767" lon="-1.29247">
        <ele>39</ele>
        <time>2023-11-11T21:57:42Z</time>
      </trkpt>
      <trkpt lat="47.51747" lon="-1.29235">
        <ele>38</ele>
        <time>2023-11-11T21:58:11Z</time>
      </trkpt>
      <trkpt lat="47.51731" lon="-1.29221">
        <ele>37</ele>
        <time>2023-11-11T21:58:36Z</time>
      </trkpt>
      <trkpt lat="47.52539" lon="-1.34785">
        <ele>33</ele>
        <time>2023-11-11T23:24:04Z</time>
      </trkpt>
      <trkpt lat="47.52549" lon="-1.34815">
        <ele>33</ele>
        <time>2023-11-11T23:24:35Z</time>
      </trkpt>
      <trkpt lat="47.52553" lon="-1.34877">
        <ele>35</ele>
        <time>2023-11-11T23:25:31Z</time>
      </trkpt>
      <trkpt lat="47.52558" lon="-1.34906">
        <ele>36</ele>
        <time>2023-11-11T23:25:58Z</time>
      </trkpt>
      <trkpt lat="47.52578" lon="-1.34914">
        <ele>36</ele>
        <time>2023-11-11T23:26:25Z</time>
      </trkpt>
      <trkpt lat="47.52632" lon="-1.34949">
        <ele>35</ele>
        <time>2023-11-11T23:27:44Z</time>
      </trkpt>
      <trkpt lat="47.52674" lon="-1.34937">
        <ele>33</ele>
        <time>2023-11-11T23:28:41Z</time>
      </trkpt>
      <trkpt lat="47.52712" lon="-1.34918">
        <ele>34</ele>
        <time>2023-11-11T23:29:35Z</time>
      </trkpt>
      <trkpt lat="47.5273" lon="-1.34922">
        <ele>35</ele>
        <time>2023-11-11T23:29:59Z</time>
      </trkpt>
      <trkpt lat="47.52738" lon="-1.34896">
        <ele>34</ele>
        <time>2023-11-11T23:30:25Z</time>
      </trkpt>
      <trkpt lat="47.52696" lon="-1.34754">
        <ele>34</ele>
        <time>2023-11-11T23:32:44Z</time>
      </trkpt>
      <trkpt lat="47.52691" lon="-1.34722">
        <ele>35</ele>
        <time>2023-11-11T23:33:14Z</time>
      </trkpt>
      <trkpt lat="47.52667" lon="-1.34663">
        <ele>35</ele>
        <time>2023-11-11T23:34:16Z</time>
      </trkpt>
      <trkpt lat="47.52659" lon="-1.34631">
        <ele>35</ele>
        <time>2023-11-11T23:34:47Z</time>
      </trkpt>
      <trkpt lat="47.52654" lon="-1.34568">
        <ele>35</ele>
        <time>2023-11-11T23:35:44Z</time>
      </trkpt>
      <trkpt lat="47.52668" lon="-1.3455">
        <ele>34</ele>
        <time>2023-11-11T23:36:09Z</time>
      </trkpt>
      <trkpt lat="47.52687" lon="-1.34533">
        <ele>35</ele>
        <time>2023-11-11T23:36:38Z</time>
      </trkpt>
      <trkpt lat="47.52733" lon="-1.34474">
        <ele>35</ele>
        <time>2023-11-11T23:37:59Z</time>
      </trkpt>
      <trkpt lat="47.5277" lon="-1.3444">
        <ele>36</ele>
        <time>2023-11-11T23:38:58Z</time>
      </trkpt>
      <trkpt lat="47.5279" lon="-1.34444">
        <ele>37</ele>
        <time>2023-11-11T23:39:24Z</time>
      </trkpt>
      <trkpt lat="47.52808" lon="-1.34458">
        <ele>38</ele>
        <time>2023-11-11T23:39:52Z</time>
      </trkpt>
      <trkpt lat="47.52893" lon="-1.34476">
        <ele>38</ele>
        <time>2023-11-11T23:41:46Z</time>
      </trkpt>
      <trkpt lat="47.52937" lon="-1.34481">
        <ele>37</ele>
        <time>2023-11-11T23:42:45Z</time>
      </trkpt>
      <trkpt lat="47.52981" lon="-1.34459">
        <ele>38</ele>
        <time>2023-11-11T23:43:47Z</time>
      </trkpt>
      <trkpt lat="47.53043" lon="-1.34436">
        <ele>38</ele>
        <time>2023-11-11T23:45:12Z</time>
      </trkpt>
      <trkpt lat="47.53103" lon="-1.34408">
        <ele>38</ele>
        <time>2023-11-11T23:46:36Z</time>
      </trkpt>
      <trkpt lat="47.53125" lon="-1.34406">
        <ele>39</ele>
        <time>2023-11-11T23:47:06Z</time>
      </trkpt>
      <trkpt lat="47.53186" lon="-1.34419">
        <ele>41</ele>
        <time>2023-11-11T23:48:28Z</time>
      </trkpt>
      <trkpt lat="47.53208" lon="-1.34418">
        <ele>43</ele>
        <time>2023-11-11T23:48:57Z</time>
      </trkpt>
      <trkpt lat="47.53269" lon="-1.34426">
        <ele>46</ele>
        <time>2023-11-11T23:50:19Z</time>
      </trkpt>
      <trkpt lat="47.53281" lon="-1.34449">
        <ele>47</ele>
        <time>2023-11-11T23:50:45Z</time>
      </trkpt>
      <trkpt lat="47.53298" lon="-1.34463">
        <ele>48</ele>
        <time>2023-11-11T23:51:11Z</time>
      </trkpt>
      <trkpt lat="47.53302" lon="-1.34491">
        <ele>49</ele>
        <time>2023-11-11T23:51:37Z</time>
      </trkpt>
      <trkpt lat="47.53292" lon="-1.34549">
        <ele>49</ele>
        <time>2023-11-11T23:52:31Z</time>
      </trkpt>
      <trkpt lat="47.53285" lon="-1.34609">
        <ele>49</ele>
        <time>2023-11-11T23:53:26Z</time>
      </trkpt>
      <trkpt lat="47.53281" lon="-1.3467">
        <ele>49</ele>
        <time>2023-11-11T23:54:21Z</time>
      </trkpt>
      <trkpt lat="47.53276" lon="-1.34699">
        <ele>49</ele>
        <time>2023-11-11T23:54:48Z</time>
      </trkpt>
      <trkpt lat="47.5328" lon="-1.34759">
        <ele>50</ele>
        <time>2023-11-11T23:55:42Z</time>
      </trkpt>
      <trkpt lat="47.53286" lon="-1.34787">
        <ele>49</ele>
        <time>2023-11-11T23:56:09Z</time>
      </trkpt>
      <trkpt lat="47.53296" lon="-1.34814">
        <ele>49</ele>
        <time>2023-11-11T23:56:37Z</time>
      </trkpt>
      <trkpt lat="47.53317" lon="-1.34812">
        <ele>50</ele>
        <time>2023-11-11T23:57:05Z</time>
      </trkpt>
      <trkpt lat="47.53335" lon="-1.34804">
        <ele>50</ele>
        <time>2023-11-11T23:57:30Z</time>
      </trkpt>
      <trkpt lat="47.53357" lon="-1.34801">
        <ele>51</ele>
        <time>2023-11-11T23:57:59Z</time>
      </trkpt>
      <trkpt lat="47.53377" lon="-1.34794">
        <ele>51</ele>
        <time>2023-11-11T23:58:27Z</time>
      </trkpt>
      <trkpt lat="47.53478" lon="-1.34774">
        <ele>52</ele>
        <time>2023-11-12T00:00:43Z</time>
      </trkpt>
      <trkpt lat="47.53644" lon="-1.34727">
        <ele>52</ele>
        <time>2023-11-12T00:04:28Z</time>
      </trkpt>
      <trkpt lat="47.53661" lon="-1.34741">
        <ele>51</ele>
        <time>2023-11-12T00:04:54Z</time>
      </trkpt>
      <trkpt lat="47.53671" lon="-1.34828">
        <ele>51</ele>
        <time>2023-11-12T00:06:14Z</time>
      </trkpt>
      <trkpt lat="47.53684" lon="-1.34913">
        <ele>54</ele>
        <time>2023-11-12T00:07:32Z</time>
      </trkpt>
      <trkpt lat="47.53686" lon="-1.34942">
        <ele>55</ele>
        <time>2023-11-12T00:07:58Z</time>
      </trkpt>
      <trkpt lat="47.53726" lon="-1.35001">
        <ele>56</ele>
        <time>2023-11-12T00:09:14Z</time>
      </trkpt>
      <trkpt lat="47.53735" lon="-1.35026">
        <ele>57</ele>
        <time>2023-11-12T00:09:39Z</time>
      </trkpt>
      <trkpt lat="47.53751" lon="-1.35049">
        <ele>57</ele>
        <time>2023-11-12T00:10:09Z</time>
      </trkpt>
      <trkpt lat="47.53759" lon="-1.35076">
        <ele>58</ele>
        <time>2023-11-12T00:10:36Z</time>
      </trkpt>
      <trkpt lat="47.53775" lon="-1.35159">
        <ele>61</ele>
        <time>2023-11-12T00:11:53Z</time>
      </trkpt>
      <trkpt lat="47.53781" lon="-1.35215">
        <ele>61</ele>
        <time>2023-11-12T00:12:44Z</time>
      </trkpt>
      <trkpt lat="47.53785" lon="-1.35362">
        <ele>58</ele>
        <time>2023-11-12T00:14:57Z</time>
      </trkpt>
      <trkpt lat="47.53772" lon="-1.35386">
        <ele>58</ele>
        <time>2023-11-12T00:15:25Z</time>
      </trkpt>
      <trkpt lat="47.53699" lon="-1.35436">
        <ele>58</ele>
        <time>2023-11-12T00:17:12Z</time>
      </trkpt>
      <trkpt lat="47.53681" lon="-1.35443">
        <ele>58</ele>
        <time>2023-11-12T00:17:37Z</time>
      </trkpt>
      <trkpt lat="47.53628" lon="-1.35477">
        <ele>57</ele>
        <time>2023-11-12T00:18:54Z</time>
      </trkpt>
      <trkpt lat="47.5361" lon="-1.35486">
        <ele>57</ele>
        <time>2023-11-12T00:19:19Z</time>
      </trkpt>
      <trkpt lat="47.5362" lon="-1.35508">
        <ele>56</ele>
        <time>2023-11-12T00:19:43Z</time>
      </trkpt>
      <trkpt lat="47.53633" lon="-1.3556">
        <ele>57</ele>
        <time>2023-11-12T00:20:33Z</time>
      </trkpt>
      <trkpt lat="47.53652" lon="-1.35615">
        <ele>57</ele>
        <time>2023-11-12T00:21:29Z</time>
      </trkpt>
      <trkpt lat="47.53679" lon="-1.35727">
        <ele>58</ele>
        <time>2023-11-12T00:23:16Z</time>
      </trkpt>
      <trkpt lat="47.53684" lon="-1.35754">
        <ele>58</ele>
        <time>2023-11-12T00:23:41Z</time>
      </trkpt>
      <trkpt lat="47.53678" lon="-1.3578">
        <ele>58</ele>
        <time>2023-11-12T00:24:06Z</time>
      </trkpt>
      <trkpt lat="47.53678" lon="-1.35847">
        <ele>58</ele>
        <time>2023-11-12T00:25:06Z</time>
      </trkpt>
      <trkpt lat="47.53684" lon="-1.35878">
        <ele>58</ele>
        <time>2023-11-12T00:25:35Z</time>
      </trkpt>
      <trkpt lat="47.53693" lon="-1.35906">
        <ele>58</ele>
        <time>2023-11-12T00:26:03Z</time>
      </trkpt>
      <trkpt lat="47.53706" lon="-1.35929">
        <ele>58</ele>
        <time>2023-11-12T00:26:30Z</time>
      </trkpt>
      <trkpt lat="47.53721" lon="-1.35982">
        <ele>59</ele>
        <time>2023-11-12T00:27:22Z</time>
      </trkpt>
      <trkpt lat="47.53735" lon="-1.36006">
        <ele>58</ele>
        <time>2023-11-12T00:27:51Z</time>
      </trkpt>
      <trkpt lat="47.53726" lon="-1.36033">
        <ele>58</ele>
        <time>2023-11-12T00:28:18Z</time>
      </trkpt>
      <trkpt lat="47.5367" lon="-1.36118">
        <ele>59</ele>
        <time>2023-11-12T00:30:05Z</time>
      </trkpt>
      <trkpt lat="47.53641" lon="-1.36157">
        <ele>58</ele>
        <time>2023-11-12T00:30:57Z</time>
      </trkpt>
      <trkpt lat="47.53577" lon="-1.36236">
        <ele>56</ele>
        <time>2023-11-12T00:32:48Z</time>
      </trkpt>
      <trkpt lat="47.53525" lon="-1.36284">
        <ele>54</ele>
        <time>2023-11-12T00:34:10Z</time>
      </trkpt>
      <trkpt lat="47.53504" lon="-1.36298">
        <ele>54</ele>
        <time>2023-11-12T00:34:41Z</time>
      </trkpt>
      <trkpt lat="47.53466" lon="-1.36335">
        <ele>53</ele>
        <time>2023-11-12T00:35:41Z</time>
      </trkpt>
      <trkpt lat="47.53447" lon="-1.36351">
        <ele>52</ele>
        <time>2023-11-12T00:36:10Z</time>
      </trkpt>
      <trkpt lat="47.53428" lon="-1.36363">
        <ele>52</ele>
        <time>2023-11-12T00:36:38Z</time>
      </trkpt>
      <trkpt lat="47.5341" lon="-1.36346">
        <ele>53</ele>
        <time>2023-11-12T00:37:07Z</time>
      </trkpt>
      <trkpt lat="47.53396" lon="-1.36324">
        <ele>53</ele>
        <time>2023-11-12T00:37:34Z</time>
      </trkpt>
      <trkpt lat="47.53329" lon="-1.36181">
        <ele>56</ele>
        <time>2023-11-12T00:40:11Z</time>
      </trkpt>
      <trkpt lat="47.53261" lon="-1.35998">
        <ele>56</ele>
        <time>2023-11-12T00:43:19Z</time>
      </trkpt>
      <trkpt lat="47.53262" lon="-1.35968">
        <ele>58</ele>
        <time>2023-11-12T00:43:46Z</time>
      </trkpt>
      <trkpt lat="47.53228" lon="-1.35938">
        <ele>56</ele>
        <time>2023-11-12T00:44:39Z</time>
      </trkpt>
      <trkpt lat="47.53207" lon="-1.35987">
        <ele>53</ele>
        <time>2023-11-12T00:45:31Z</time>
      </trkpt>
      <trkpt lat="47.53177" lon="-1.36069">
        <ele>49</ele>
        <time>2023-11-12T00:46:55Z</time>
      </trkpt>
      <trkpt lat="47.5309" lon="-1.36316">
        <ele>49</ele>
        <time>2023-11-12T00:51:06Z</time>
      </trkpt>
      <trkpt lat="47.52996" lon="-1.36519">
        <ele>52</ele>
        <time>2023-11-12T00:54:48Z</time>
      </trkpt>
      <trkpt lat="47.52983" lon="-1.36542">
        <ele>52</ele>
        <time>2023-11-12T00:55:15Z</time>
      </trkpt>
      <trkpt lat="47.52964" lon="-1.3655">
        <ele>52</ele>
        <time>2023-11-12T00:55:41Z</time>
      </trkpt>
      <trkpt lat="47.52715" lon="-1.36603">
        <ele>58</ele>
        <time>2023-11-12T01:01:17Z</time>
      </trkpt>
      <trkpt lat="47.52695" lon="-1.36608">
        <ele>58</ele>
        <time>2023-11-12T01:01:44Z</time>
      </trkpt>
      <trkpt lat="47.52677" lon="-1.36618">
        <ele>58</ele>
        <time>2023-11-12T01:02:10Z</time>
      </trkpt>
      <trkpt lat="47.52673" lon="-1.36647">
        <ele>58</ele>
        <time>2023-11-12T01:02:36Z</time>
      </trkpt>
      <trkpt lat="47.52648" lon="-1.36696">
        <ele>57</ele>
        <time>2023-11-12T01:03:32Z</time>
      </trkpt>
      <trkpt lat="47.52573" lon="-1.36793">
        <ele>53</ele>
        <time>2023-11-12T01:05:44Z</time>
      </trkpt>
      <trkpt lat="47.52548" lon="-1.3684">
        <ele>50</ele>
        <time>2023-11-12T01:06:38Z</time>
      </trkpt>
      <trkpt lat="47.52531" lon="-1.36854">
        <ele>49</ele>
        <time>2023-11-12T01:07:04Z</time>
      </trkpt>
      <trkpt lat="47.52511" lon="-1.36853">
        <ele>48</ele>
        <time>2023-11-12T01:07:31Z</time>
      </trkpt>
      <trkpt lat="47.5239" lon="-1.3683">
        <ele>43</ele>
        <time>2023-11-12T01:10:14Z</time>
      </trkpt>
      <trkpt lat="47.52225" lon="-1.36804">
        <ele>33</ele>
        <time>2023-11-12T01:13:55Z</time>
      </trkpt>
      <trkpt lat="47.52145" lon="-1.36794">
        <ele>31</ele>
        <time>2023-11-12T01:15:42Z</time>
      </trkpt>
      <trkpt lat="47.52135" lon="-1.36765">
        <ele>30</ele>
        <time>2023-11-12T01:16:12Z</time>
      </trkpt>
      <trkpt lat="47.52133" lon="-1.36702">
        <ele>30</ele>
        <time>2023-11-12T01:17:09Z</time>
      </trkpt>
      <trkpt lat="47.52135" lon="-1.36671">
        <ele>30</ele>
        <time>2023-11-12T01:17:37Z</time>
      </trkpt>
      <trkpt lat="47.52143" lon="-1.3664">
        <ele>31</ele>
        <time>2023-11-12T01:18:07Z</time>
      </trkpt>
      <trkpt lat="47.52186" lon="-1.36541">
        <ele>33</ele>
        <time>2023-11-12T01:19:53Z</time>
      </trkpt>
      <trkpt lat="47.52185" lon="-1.36509">
        <ele>33</ele>
        <time>2023-11-12T01:20:22Z</time>
      </trkpt>
      <trkpt lat="47.52172" lon="-1.36486">
        <ele>33</ele>
        <time>2023-11-12T01:20:49Z</time>
      </trkpt>
      <trkpt lat="47.52157" lon="-1.36469">
        <ele>32</ele>
        <time>2023-11-12T01:21:14Z</time>
      </trkpt>
      <trkpt lat="47.52147" lon="-1.36446">
        <ele>31</ele>
        <time>2023-11-12T01:21:38Z</time>
      </trkpt>
      <trkpt lat="47.5214" lon="-1.36418">
        <ele>31</ele>
        <time>2023-11-12T01:22:05Z</time>
      </trkpt>
      <trkpt lat="47.5213" lon="-1.36296">
        <ele>30</ele>
        <time>2023-11-12T01:23:56Z</time>
      </trkpt>
      <trkpt lat="47.52132" lon="-1.36238">
        <ele>31</ele>
        <time>2023-11-12T01:24:48Z</time>
      </trkpt>
      <trkpt lat="47.52144" lon="-1.36117">
        <ele>32</ele>
        <time>2023-11-12T01:26:39Z</time>
      </trkpt>
      <trkpt lat="47.52166" lon="-1.35978">
        <ele>30</ele>
        <time>2023-11-12T01:28:47Z</time>
      </trkpt>
      <trkpt lat="47.52173" lon="-1.35952">
        <ele>30</ele>
        <time>2023-11-12T01:29:13Z</time>
      </trkpt>
      <trkpt lat="47.52186" lon="-1.35925">
        <ele>30</ele>
        <time>2023-11-12T01:29:42Z</time>
      </trkpt>
      <trkpt lat="47.52215" lon="-1.35888">
        <ele>31</ele>
        <time>2023-11-12T01:30:33Z</time>
      </trkpt>
      <trkpt lat="47.52247" lon="-1.35862">
        <ele>33</ele>
        <time>2023-11-12T01:31:22Z</time>
      </trkpt>
      <trkpt lat="47.52281" lon="-1.35827">
        <ele>33</ele>
        <time>2023-11-12T01:32:17Z</time>
      </trkpt>
      <trkpt lat="47.52295" lon="-1.35802">
        <ele>32</ele>
        <time>2023-11-12T01:32:47Z</time>
      </trkpt>
      <trkpt lat="47.52302" lon="-1.35777">
        <ele>32</ele>
        <time>2023-11-12T01:33:11Z</time>
      </trkpt>
      <trkpt lat="47.52306" lon="-1.35715">
        <ele>32</ele>
        <time>2023-11-12T01:34:07Z</time>
      </trkpt>
      <trkpt lat="47.52302" lon="-1.35687">
        <ele>32</ele>
        <time>2023-11-12T01:34:33Z</time>
      </trkpt>
      <trkpt lat="47.52294" lon="-1.35661">
        <ele>33</ele>
        <time>2023-11-12T01:34:59Z</time>
      </trkpt>
      <trkpt lat="47.52281" lon="-1.35634">
        <ele>34</ele>
        <time>2023-11-12T01:35:29Z</time>
      </trkpt>
      <trkpt lat="47.52203" lon="-1.35536">
        <ele>33</ele>
        <time>2023-11-12T01:37:45Z</time>
      </trkpt>
      <trkpt lat="47.52198" lon="-1.35505">
        <ele>33</ele>
        <time>2023-11-12T01:38:14Z</time>
      </trkpt>
      <trkpt lat="47.52212" lon="-1.35449">
        <ele>33</ele>
        <time>2023-11-12T01:39:08Z</time>
      </trkpt>
      <trkpt lat="47.52231" lon="-1.35394">
        <ele>34</ele>
        <time>2023-11-12T01:40:03Z</time>
      </trkpt>
      <trkpt lat="47.52242" lon="-1.35372">
        <ele>34</ele>
        <time>2023-11-12T01:40:28Z</time>
      </trkpt>
      <trkpt lat="47.52257" lon="-1.35319">
        <ele>33</ele>
        <time>2023-11-12T01:41:20Z</time>
      </trkpt>
      <trkpt lat="47.52288" lon="-1.35179">
        <ele>31</ele>
        <time>2023-11-12T01:43:33Z</time>
      </trkpt>
      <trkpt lat="47.52299" lon="-1.35098">
        <ele>31</ele>
        <time>2023-11-12T01:44:47Z</time>
      </trkpt>
      <trkpt lat="47.52311" lon="-1.35044">
        <ele>31</ele>
        <time>2023-11-12T01:45:38Z</time>
      </trkpt>
      <trkpt lat="47.5233" lon="-1.34921">
        <ele>31</ele>
        <time>2023-11-12T01:47:32Z</time>
      </trkpt>
      <trkpt lat="47.52336" lon="-1.34895">
        <ele>30</ele>
        <time>2023-11-12T01:47:57Z</time>
      </trkpt>
      <trkpt lat="47.52344" lon="-1.34868">
        <ele>30</ele>
        <time>2023-11-12T01:48:23Z</time>
      </trkpt>
      <trkpt lat="47.52358" lon="-1.34846">
        <ele>30</ele>
        <time>2023-11-12T01:48:51Z</time>
      </trkpt>
      <trkpt lat="47.52447" lon="-1.34767">
        <ele>32</ele>
        <time>2023-11-12T01:51:09Z</time>
      </trkpt>
      <trkpt lat="47.5249" lon="-1.34703">
        <ele>33</ele>
        <time>2023-11-12T01:52:30Z</time>
      </trkpt>
      <trkpt lat="47.52507" lon="-1.34684">
        <ele>32</ele>
        <time>2023-11-12T01:52:59Z</time>
      </trkpt>
      <trkpt lat="47.52521" lon="-1.34702">
        <ele>32</ele>
        <time>2023-11-12T01:53:24Z</time>
      </trkpt>
      <trkpt lat="47.52535" lon="-1.34729">
        <ele>33</ele>
        <time>2023-11-12T01:53:54Z</time>
      </trkpt>
      <trkpt lat="47.52543" lon="-1.34756">
        <ele>33</ele>
        <time>2023-11-12T01:54:21Z</time>
      </trkpt>
    </trkseg>
  </trk>
</gpx>